sensor_id;sensor_type;location;lat;lon;timestamp;P1;durP1;ratioP1;P2;durP2;ratioP2
14153;SDS011;7157;53.144;7.570;2023-02-11T00:06:23;27.65;;;8.32;;
14153;SDS011;7157;53.144;7.570;2023-02-11T00:16:28;23.25;;;7.25;;
14153;SDS011;7157;53.144;7.570;2023-02-11T00:26:34;13.73;;;5.55;;
14153;SDS011;7157;53.144;7.570;2023-02-11T00:36:37;30.58;;;6.20;;
14153;SDS011;7157;53.144;7.570;2023-02-11T00:46:41;18.48;;;7.28;;
14153;SDS011;7157;53.144;7.570;2023-02-11T00:56:44;17.88;;;6.90;;
14153;SDS011;7157;53.144;7.570;2023-02-11T01:06:49;18.98;;;5.80;;
14153;SDS011;7157;53.144;7.570;2023-02-11T01:16:52;19.33;;;6.40;;
14153;SDS011;7157;53.144;7.570;2023-02-11T01:26:56;15.43;;;4.80;;
14153;SDS011;7157;53.144;7.570;2023-02-11T01:36:58;13.10;;;4.28;;
14153;SDS011;7157;53.144;7.570;2023-02-11T01:47:03;22.17;;;5.90;;
14153;SDS011;7157;53.144;7.570;2023-02-11T01:57:07;26.63;;;6.22;;
14153;SDS011;7157;53.144;7.570;2023-02-11T02:07:29;15.13;;;5.15;;
14153;SDS011;7157;53.144;7.570;2023-02-11T02:17:39;16.20;;;4.95;;
14153;SDS011;7157;53.144;7.570;2023-02-11T02:27:51;14.95;;;4.95;;
14153;SDS011;7157;53.144;7.570;2023-02-11T02:38:05;12.68;;;4.47;;
14153;SDS011;7157;53.144;7.570;2023-02-11T02:48:21;20.77;;;6.10;;
14153;SDS011;7157;53.144;7.570;2023-02-11T03:08:56;21.88;;;6.05;;
14153;SDS011;7157;53.144;7.570;2023-02-11T03:19:04;11.07;;;4.82;;
14153;SDS011;7157;53.144;7.570;2023-02-11T03:29:13;24.45;;;7.22;;
14153;SDS011;7157;53.144;7.570;2023-02-11T03:39:22;16.52;;;5.85;;
14153;SDS011;7157;53.144;7.570;2023-02-11T03:49:28;20.92;;;7.68;;
14153;SDS011;7157;53.144;7.570;2023-02-11T04:09:56;12.40;;;5.95;;
14153;SDS011;7157;53.144;7.570;2023-02-11T04:20:00;26.35;;;7.72;;
14153;SDS011;7157;53.144;7.570;2023-02-11T04:30:03;16.05;;;6.78;;
14153;SDS011;7157;53.144;7.570;2023-02-11T04:40:09;23.10;;;6.97;;
14153;SDS011;7157;53.144;7.570;2023-02-11T04:50:12;27.73;;;8.38;;
14153;SDS011;7157;53.144;7.570;2023-02-11T05:00:23;21.57;;;7.73;;
14153;SDS011;7157;53.144;7.570;2023-02-11T05:10:25;25.80;;;8.80;;
14153;SDS011;7157;53.144;7.570;2023-02-11T05:20:30;24.40;;;9.02;;
14153;SDS011;7157;53.144;7.570;2023-02-11T05:30:32;21.88;;;9.73;;
14153;SDS011;7157;53.144;7.570;2023-02-11T05:40:36;23.13;;;8.50;;
14153;SDS011;7157;53.144;7.570;2023-02-11T05:50:39;28.25;;;9.45;;
14153;SDS011;7157;53.144;7.570;2023-02-11T06:00:44;34.58;;;10.88;;
14153;SDS011;7157;53.144;7.570;2023-02-11T06:10:46;22.35;;;9.15;;
14153;SDS011;7157;53.144;7.570;2023-02-11T06:20:50;25.83;;;10.00;;
14153;SDS011;7157;53.144;7.570;2023-02-11T06:30:53;29.00;;;10.68;;
14153;SDS011;7157;53.144;7.570;2023-02-11T06:40:57;28.63;;;10.27;;
14153;SDS011;7157;53.144;7.570;2023-02-11T06:51:00;25.27;;;10.15;;
14153;SDS011;7157;53.144;7.570;2023-02-11T07:01:06;23.17;;;8.82;;
14153;SDS011;7157;53.144;7.570;2023-02-11T07:11:10;23.50;;;9.20;;
14153;SDS011;7157;53.144;7.570;2023-02-11T07:21:16;24.38;;;9.30;;
14153;SDS011;7157;53.144;7.570;2023-02-11T07:31:21;22.42;;;8.48;;
14153;SDS011;7157;53.144;7.570;2023-02-11T07:41:26;21.27;;;9.23;;
14153;SDS011;7157;53.144;7.570;2023-02-11T07:51:29;24.35;;;9.95;;
14153;SDS011;7157;53.144;7.570;2023-02-11T08:01:33;21.38;;;9.20;;
14153;SDS011;7157;53.144;7.570;2023-02-11T08:11:36;19.90;;;7.72;;
14153;SDS011;7157;53.144;7.570;2023-02-11T08:21:40;24.25;;;8.93;;
14153;SDS011;7157;53.144;7.570;2023-02-11T08:31:43;16.95;;;8.20;;
14153;SDS011;7157;53.144;7.570;2023-02-11T08:41:50;17.38;;;8.85;;
14153;SDS011;7157;53.144;7.570;2023-02-11T08:51:54;21.40;;;9.50;;
14153;SDS011;7157;53.144;7.570;2023-02-11T09:02:00;14.02;;;6.13;;
14153;SDS011;7157;53.144;7.570;2023-02-11T09:12:03;20.83;;;8.40;;
14153;SDS011;7157;53.144;7.570;2023-02-11T09:22:08;20.65;;;8.50;;
14153;SDS011;7157;53.144;7.570;2023-02-11T09:32:10;19.15;;;7.57;;
14153;SDS011;7157;53.144;7.570;2023-02-11T09:42:27;17.05;;;7.43;;
14153;SDS011;7157;53.144;7.570;2023-02-11T09:52:40;19.30;;;7.53;;
14153;SDS011;7157;53.144;7.570;2023-02-11T10:02:55;14.40;;;7.47;;
14153;SDS011;7157;53.144;7.570;2023-02-11T10:23:38;20.55;;;8.75;;
14153;SDS011;7157;53.144;7.570;2023-02-11T10:33:46;20.52;;;7.85;;
14153;SDS011;7157;53.144;7.570;2023-02-11T10:43:54;20.85;;;8.20;;
14153;SDS011;7157;53.144;7.570;2023-02-11T10:54:13;22.10;;;7.93;;
14153;SDS011;7157;53.144;7.570;2023-02-11T11:04:36;14.23;;;7.13;;
14153;SDS011;7157;53.144;7.570;2023-02-11T11:24:56;13.68;;;6.00;;
14153;SDS011;7157;53.144;7.570;2023-02-11T11:35:03;12.32;;;5.68;;
14153;SDS011;7157;53.144;7.570;2023-02-11T11:45:24;18.73;;;6.65;;
14153;SDS011;7157;53.144;7.570;2023-02-11T11:55:28;20.48;;;7.28;;
14153;SDS011;7157;53.144;7.570;2023-02-11T12:05:40;17.48;;;6.32;;
14153;SDS011;7157;53.144;7.570;2023-02-11T12:15:51;16.75;;;7.30;;
14153;SDS011;7157;53.144;7.570;2023-02-11T12:26:03;17.38;;;6.75;;
14153;SDS011;7157;53.144;7.570;2023-02-11T12:36:16;20.23;;;8.13;;
14153;SDS011;7157;53.144;7.570;2023-02-11T12:46:36;17.98;;;6.00;;
14153;SDS011;7157;53.144;7.570;2023-02-11T12:56:45;20.25;;;6.25;;
14153;SDS011;7157;53.144;7.570;2023-02-11T13:06:54;18.23;;;6.00;;
14153;SDS011;7157;53.144;7.570;2023-02-11T13:17:02;12.03;;;4.50;;
14153;SDS011;7157;53.144;7.570;2023-02-11T13:37:37;19.35;;;4.13;;
14153;SDS011;7157;53.144;7.570;2023-02-11T13:47:42;14.70;;;4.03;;
14153;SDS011;7157;53.144;7.570;2023-02-11T13:57:45;20.90;;;3.08;;
14153;SDS011;7157;53.144;7.570;2023-02-11T14:08:20;16.50;;;3.03;;
14153;SDS011;7157;53.144;7.570;2023-02-11T14:18:58;15.63;;;3.45;;
14153;SDS011;7157;53.144;7.570;2023-02-11T14:29:07;15.25;;;3.30;;
14153;SDS011;7157;53.144;7.570;2023-02-11T14:39:20;12.05;;;2.22;;
14153;SDS011;7157;53.144;7.570;2023-02-11T14:49:37;15.52;;;2.50;;
14153;SDS011;7157;53.144;7.570;2023-02-11T14:59:53;22.15;;;3.42;;
14153;SDS011;7157;53.144;7.570;2023-02-11T15:10:00;14.00;;;3.08;;
14153;SDS011;7157;53.144;7.570;2023-02-11T15:20:03;18.02;;;3.20;;
14153;SDS011;7157;53.144;7.570;2023-02-11T15:30:29;17.02;;;3.83;;
14153;SDS011;7157;53.144;7.570;2023-02-11T15:40:34;12.35;;;2.60;;
14153;SDS011;7157;53.144;7.570;2023-02-11T15:50:40;13.65;;;3.08;;
14153;SDS011;7157;53.144;7.570;2023-02-11T16:00:45;21.30;;;3.22;;
14153;SDS011;7157;53.144;7.570;2023-02-11T16:10:54;20.15;;;3.10;;
14153;SDS011;7157;53.144;7.570;2023-02-11T16:20:59;14.85;;;2.58;;
14153;SDS011;7157;53.144;7.570;2023-02-11T16:31:04;15.25;;;2.30;;
14153;SDS011;7157;53.144;7.570;2023-02-11T16:41:07;21.15;;;2.85;;
14153;SDS011;7157;53.144;7.570;2023-02-11T16:51:13;16.50;;;2.92;;
14153;SDS011;7157;53.144;7.570;2023-02-11T17:01:15;18.70;;;3.58;;
14153;SDS011;7157;53.144;7.570;2023-02-11T17:11:19;16.08;;;4.07;;
14153;SDS011;7157;53.144;7.570;2023-02-11T17:21:22;18.33;;;3.30;;
14153;SDS011;7157;53.144;7.570;2023-02-11T17:31:31;27.23;;;3.28;;
14153;SDS011;7157;53.144;7.570;2023-02-11T17:41:36;23.98;;;3.70;;
14153;SDS011;7157;53.144;7.570;2023-02-11T17:51:41;18.42;;;3.78;;
14153;SDS011;7157;53.144;7.570;2023-02-11T18:01:43;16.25;;;3.95;;
14153;SDS011;7157;53.144;7.570;2023-02-11T18:11:47;12.65;;;2.97;;
14153;SDS011;7157;53.144;7.570;2023-02-11T18:21:52;16.98;;;3.47;;
14153;SDS011;7157;53.144;7.570;2023-02-11T18:31:56;15.90;;;3.50;;
14153;SDS011;7157;53.144;7.570;2023-02-11T18:41:59;15.48;;;3.22;;
14153;SDS011;7157;53.144;7.570;2023-02-11T18:52:03;15.40;;;3.72;;
14153;SDS011;7157;53.144;7.570;2023-02-11T19:02:07;16.45;;;3.63;;
14153;SDS011;7157;53.144;7.570;2023-02-11T19:12:12;14.07;;;3.00;;
14153;SDS011;7157;53.144;7.570;2023-02-11T19:22:14;16.42;;;3.10;;
14153;SDS011;7157;53.144;7.570;2023-02-11T19:32:20;19.20;;;3.72;;
14153;SDS011;7157;53.144;7.570;2023-02-11T19:42:22;11.50;;;2.65;;
14153;SDS011;7157;53.144;7.570;2023-02-11T19:52:29;24.80;;;3.53;;
14153;SDS011;7157;53.144;7.570;2023-02-11T20:02:32;19.67;;;4.25;;
14153;SDS011;7157;53.144;7.570;2023-02-11T20:12:36;16.73;;;2.85;;
14153;SDS011;7157;53.144;7.570;2023-02-11T20:22:39;25.58;;;4.05;;
14153;SDS011;7157;53.144;7.570;2023-02-11T20:32:42;20.10;;;4.10;;
14153;SDS011;7157;53.144;7.570;2023-02-11T20:42:45;17.90;;;3.35;;
14153;SDS011;7157;53.144;7.570;2023-02-11T20:52:49;11.65;;;3.22;;
14153;SDS011;7157;53.144;7.570;2023-02-11T21:02:52;13.77;;;3.58;;
14153;SDS011;7157;53.144;7.570;2023-02-11T21:12:56;19.10;;;4.35;;
14153;SDS011;7157;53.144;7.570;2023-02-11T21:23:00;16.75;;;4.68;;
14153;SDS011;7157;53.144;7.570;2023-02-11T21:33:04;18.80;;;5.45;;
14153;SDS011;7157;53.144;7.570;2023-02-11T21:43:07;16.17;;;5.63;;
14153;SDS011;7157;53.144;7.570;2023-02-11T21:53:11;22.50;;;6.35;;
14153;SDS011;7157;53.144;7.570;2023-02-11T22:03:14;21.20;;;6.60;;
14153;SDS011;7157;53.144;7.570;2023-02-11T22:13:18;22.75;;;6.43;;
14153;SDS011;7157;53.144;7.570;2023-02-11T22:23:21;20.00;;;6.78;;
14153;SDS011;7157;53.144;7.570;2023-02-11T22:33:26;30.25;;;8.50;;
14153;SDS011;7157;53.144;7.570;2023-02-11T22:43:29;25.83;;;7.85;;
14153;SDS011;7157;53.144;7.570;2023-02-11T22:53:33;29.98;;;6.80;;
14153;SDS011;7157;53.144;7.570;2023-02-11T23:03:36;24.75;;;7.13;;
14153;SDS011;7157;53.144;7.570;2023-02-11T23:13:40;14.30;;;6.18;;
14153;SDS011;7157;53.144;7.570;2023-02-11T23:23:44;15.90;;;6.80;;
14153;SDS011;7157;53.144;7.570;2023-02-11T23:33:48;21.48;;;7.28;;
14153;SDS011;7157;53.144;7.570;2023-02-11T23:43:52;36.45;;;8.45;;
14153;SDS011;7157;53.144;7.570;2023-02-11T23:53:57;25.30;;;7.65;;
